sensor_id;sensor_type;location;lat;lon;timestamp;P1;durP1;ratioP1;P2;durP2;ratioP2
36651;SDS011;53334;51.976;20.144;2022-12-18T00:01:58;14.30;;;8.85;;
36651;SDS011;53334;51.976;20.144;2022-12-18T00:04:32;13.60;;;8.20;;
36651;SDS011;53334;51.976;20.144;2022-12-18T00:07:06;12.13;;;8.63;;
36651;SDS011;53334;51.976;20.144;2022-12-18T00:09:40;14.18;;;8.60;;
36651;SDS011;53334;51.976;20.144;2022-12-18T00:12:15;14.88;;;9.05;;
36651;SDS011;53334;51.976;20.144;2022-12-18T00:14:54;13.40;;;8.77;;
36651;SDS011;53334;51.976;20.144;2022-12-18T00:17:29;13.65;;;8.07;;
36651;SDS011;53334;51.976;20.144;2022-12-18T00:20:05;11.27;;;8.40;;
36651;SDS011;53334;51.976;20.144;2022-12-18T00:22:40;12.00;;;8.90;;
36651;SDS011;53334;51.976;20.144;2022-12-18T00:25:14;13.65;;;8.43;;
36651;SDS011;53334;51.976;20.144;2022-12-18T00:27:48;11.98;;;8.18;;
36651;SDS011;53334;51.976;20.144;2022-12-18T00:30:22;15.77;;;9.73;;
36651;SDS011;53334;51.976;20.144;2022-12-18T00:32:57;13.75;;;9.15;;
36651;SDS011;53334;51.976;20.144;2022-12-18T00:35:31;17.25;;;9.50;;
36651;SDS011;53334;51.976;20.144;2022-12-18T00:38:05;12.98;;;8.43;;
36651;SDS011;53334;51.976;20.144;2022-12-18T00:40:39;13.38;;;8.98;;
36651;SDS011;53334;51.976;20.144;2022-12-18T00:43:13;14.10;;;9.05;;
36651;SDS011;53334;51.976;20.144;2022-12-18T00:45:46;13.77;;;8.60;;
36651;SDS011;53334;51.976;20.144;2022-12-18T00:48:21;11.73;;;8.57;;
36651;SDS011;53334;51.976;20.144;2022-12-18T00:50:55;13.27;;;9.23;;
36651;SDS011;53334;51.976;20.144;2022-12-18T00:53:29;11.88;;;8.68;;
36651;SDS011;53334;51.976;20.144;2022-12-18T00:56:04;14.68;;;9.65;;
36651;SDS011;53334;51.976;20.144;2022-12-18T00:58:38;14.43;;;9.70;;
36651;SDS011;53334;51.976;20.144;2022-12-18T01:01:12;13.45;;;9.50;;
36651;SDS011;53334;51.976;20.144;2022-12-18T01:03:48;17.52;;;9.52;;
36651;SDS011;53334;51.976;20.144;2022-12-18T01:06:24;12.65;;;9.20;;
36651;SDS011;53334;51.976;20.144;2022-12-18T01:08:58;10.57;;;8.00;;
36651;SDS011;53334;51.976;20.144;2022-12-18T01:11:32;11.88;;;8.50;;
36651;SDS011;53334;51.976;20.144;2022-12-18T01:14:06;12.50;;;9.35;;
36651;SDS011;53334;51.976;20.144;2022-12-18T01:16:41;11.95;;;8.80;;
36651;SDS011;53334;51.976;20.144;2022-12-18T01:19:17;16.77;;;9.63;;
36651;SDS011;53334;51.976;20.144;2022-12-18T01:21:51;13.57;;;9.27;;
36651;SDS011;53334;51.976;20.144;2022-12-18T01:24:25;16.92;;;9.23;;
36651;SDS011;53334;51.976;20.144;2022-12-18T01:29:32;14.38;;;8.15;;
36651;SDS011;53334;51.976;20.144;2022-12-18T01:32:06;12.65;;;9.23;;
36651;SDS011;53334;51.976;20.144;2022-12-18T01:34:42;13.63;;;9.32;;
36651;SDS011;53334;51.976;20.144;2022-12-18T01:37:16;12.48;;;9.18;;
36651;SDS011;53334;51.976;20.144;2022-12-18T01:39:52;13.88;;;9.52;;
36651;SDS011;53334;51.976;20.144;2022-12-18T01:42:26;15.40;;;9.55;;
36651;SDS011;53334;51.976;20.144;2022-12-18T01:45:02;14.30;;;9.70;;
36651;SDS011;53334;51.976;20.144;2022-12-18T01:47:38;14.35;;;9.75;;
36651;SDS011;53334;51.976;20.144;2022-12-18T01:50:17;12.40;;;9.13;;
36651;SDS011;53334;51.976;20.144;2022-12-18T01:52:59;14.90;;;9.55;;
36651;SDS011;53334;51.976;20.144;2022-12-18T01:55:37;18.20;;;9.70;;
36651;SDS011;53334;51.976;20.144;2022-12-18T01:58:14;12.90;;;9.02;;
36651;SDS011;53334;51.976;20.144;2022-12-18T02:00:49;18.23;;;9.85;;
36651;SDS011;53334;51.976;20.144;2022-12-18T02:03:24;14.07;;;9.68;;
36651;SDS011;53334;51.976;20.144;2022-12-18T02:06:00;13.93;;;9.52;;
36651;SDS011;53334;51.976;20.144;2022-12-18T02:08:45;16.08;;;9.82;;
36651;SDS011;53334;51.976;20.144;2022-12-18T02:11:34;11.65;;;8.35;;
36651;SDS011;53334;51.976;20.144;2022-12-18T02:14:17;15.05;;;9.30;;
36651;SDS011;53334;51.976;20.144;2022-12-18T02:17:01;12.45;;;9.43;;
36651;SDS011;53334;51.976;20.144;2022-12-18T02:19:39;13.10;;;9.70;;
36651;SDS011;53334;51.976;20.144;2022-12-18T02:22:24;13.00;;;9.10;;
36651;SDS011;53334;51.976;20.144;2022-12-18T02:25:04;13.82;;;9.65;;
36651;SDS011;53334;51.976;20.144;2022-12-18T02:27:47;20.75;;;9.85;;
36651;SDS011;53334;51.976;20.144;2022-12-18T02:30:25;18.33;;;9.80;;
36651;SDS011;53334;51.976;20.144;2022-12-18T02:33:04;13.23;;;9.55;;
36651;SDS011;53334;51.976;20.144;2022-12-18T02:35:40;14.13;;;8.88;;
36651;SDS011;53334;51.976;20.144;2022-12-18T02:38:16;10.35;;;8.20;;
36651;SDS011;53334;51.976;20.144;2022-12-18T02:40:54;12.10;;;8.73;;
36651;SDS011;53334;51.976;20.144;2022-12-18T02:43:32;11.90;;;8.43;;
36651;SDS011;53334;51.976;20.144;2022-12-18T02:46:21;12.52;;;8.95;;
36651;SDS011;53334;51.976;20.144;2022-12-18T02:49:06;13.57;;;8.60;;
36651;SDS011;53334;51.976;20.144;2022-12-18T02:51:52;12.48;;;8.85;;
36651;SDS011;53334;51.976;20.144;2022-12-18T02:54:34;12.93;;;8.30;;
36651;SDS011;53334;51.976;20.144;2022-12-18T02:57:24;10.48;;;8.05;;
36651;SDS011;53334;51.976;20.144;2022-12-18T03:00:10;15.77;;;9.13;;
36651;SDS011;53334;51.976;20.144;2022-12-18T03:02:47;10.43;;;8.05;;
36651;SDS011;53334;51.976;20.144;2022-12-18T03:05:28;15.48;;;9.88;;
36651;SDS011;53334;51.976;20.144;2022-12-18T03:08:07;11.80;;;8.68;;
36651;SDS011;53334;51.976;20.144;2022-12-18T03:10:48;13.32;;;8.10;;
36651;SDS011;53334;51.976;20.144;2022-12-18T03:13:26;12.38;;;9.13;;
36651;SDS011;53334;51.976;20.144;2022-12-18T03:16:06;14.32;;;9.57;;
36651;SDS011;53334;51.976;20.144;2022-12-18T03:18:45;12.27;;;9.82;;
36651;SDS011;53334;51.976;20.144;2022-12-18T03:21:22;12.13;;;8.52;;
36651;SDS011;53334;51.976;20.144;2022-12-18T03:24:02;10.25;;;8.45;;
36651;SDS011;53334;51.976;20.144;2022-12-18T03:26:42;12.38;;;9.20;;
36651;SDS011;53334;51.976;20.144;2022-12-18T03:29:20;10.77;;;8.65;;
36651;SDS011;53334;51.976;20.144;2022-12-18T03:32:02;11.07;;;8.05;;
36651;SDS011;53334;51.976;20.144;2022-12-18T03:34:39;11.60;;;8.73;;
36651;SDS011;53334;51.976;20.144;2022-12-18T03:37:17;13.98;;;9.38;;
36651;SDS011;53334;51.976;20.144;2022-12-18T03:39:51;13.50;;;9.52;;
36651;SDS011;53334;51.976;20.144;2022-12-18T03:42:27;15.50;;;9.45;;
36651;SDS011;53334;51.976;20.144;2022-12-18T03:45:12;17.70;;;10.05;;
36651;SDS011;53334;51.976;20.144;2022-12-18T03:47:55;17.77;;;10.25;;
36651;SDS011;53334;51.976;20.144;2022-12-18T03:50:42;10.82;;;8.73;;
36651;SDS011;53334;51.976;20.144;2022-12-18T03:53:23;13.32;;;8.45;;
36651;SDS011;53334;51.976;20.144;2022-12-18T03:56:04;14.57;;;9.63;;
36651;SDS011;53334;51.976;20.144;2022-12-18T03:58:43;13.63;;;9.65;;
36651;SDS011;53334;51.976;20.144;2022-12-18T04:01:26;15.52;;;10.35;;
36651;SDS011;53334;51.976;20.144;2022-12-18T04:04:05;12.70;;;9.43;;
36651;SDS011;53334;51.976;20.144;2022-12-18T04:06:43;15.30;;;9.60;;
36651;SDS011;53334;51.976;20.144;2022-12-18T04:09:21;15.30;;;9.80;;
36651;SDS011;53334;51.976;20.144;2022-12-18T04:11:56;15.20;;;9.70;;
36651;SDS011;53334;51.976;20.144;2022-12-18T04:14:31;14.10;;;9.32;;
36651;SDS011;53334;51.976;20.144;2022-12-18T04:17:11;13.05;;;9.63;;
36651;SDS011;53334;51.976;20.144;2022-12-18T04:19:46;14.68;;;9.75;;
36651;SDS011;53334;51.976;20.144;2022-12-18T04:22:21;14.95;;;10.45;;
36651;SDS011;53334;51.976;20.144;2022-12-18T04:25:00;17.15;;;10.57;;
36651;SDS011;53334;51.976;20.144;2022-12-18T04:27:40;17.35;;;10.40;;
36651;SDS011;53334;51.976;20.144;2022-12-18T04:30:16;12.77;;;9.65;;
36651;SDS011;53334;51.976;20.144;2022-12-18T04:32:50;14.10;;;9.98;;
36651;SDS011;53334;51.976;20.144;2022-12-18T04:35:27;12.55;;;9.50;;
36651;SDS011;53334;51.976;20.144;2022-12-18T04:38:01;12.75;;;9.25;;
36651;SDS011;53334;51.976;20.144;2022-12-18T04:40:37;12.10;;;8.85;;
36651;SDS011;53334;51.976;20.144;2022-12-18T04:43:20;14.52;;;10.10;;
36651;SDS011;53334;51.976;20.144;2022-12-18T04:46:00;13.23;;;10.27;;
36651;SDS011;53334;51.976;20.144;2022-12-18T04:48:35;12.30;;;9.48;;
36651;SDS011;53334;51.976;20.144;2022-12-18T04:51:11;13.95;;;10.07;;
36651;SDS011;53334;51.976;20.144;2022-12-18T04:53:45;17.17;;;10.18;;
36651;SDS011;53334;51.976;20.144;2022-12-18T04:56:19;18.92;;;9.70;;
36651;SDS011;53334;51.976;20.144;2022-12-18T04:58:53;15.50;;;9.45;;
36651;SDS011;53334;51.976;20.144;2022-12-18T05:04:05;12.88;;;10.20;;
36651;SDS011;53334;51.976;20.144;2022-12-18T05:06:41;17.40;;;10.18;;
36651;SDS011;53334;51.976;20.144;2022-12-18T05:09:15;14.73;;;9.65;;
36651;SDS011;53334;51.976;20.144;2022-12-18T05:11:50;15.82;;;9.60;;
36651;SDS011;53334;51.976;20.144;2022-12-18T05:16:59;15.32;;;9.35;;
36651;SDS011;53334;51.976;20.144;2022-12-18T05:19:33;14.23;;;9.40;;
36651;SDS011;53334;51.976;20.144;2022-12-18T05:22:08;15.35;;;9.73;;
36651;SDS011;53334;51.976;20.144;2022-12-18T05:24:44;20.08;;;10.27;;
36651;SDS011;53334;51.976;20.144;2022-12-18T05:27:18;13.10;;;8.85;;
36651;SDS011;53334;51.976;20.144;2022-12-18T05:32:26;17.63;;;9.83;;
36651;SDS011;53334;51.976;20.144;2022-12-18T05:35:00;13.02;;;9.63;;
36651;SDS011;53334;51.976;20.144;2022-12-18T05:40:14;13.07;;;9.80;;
36651;SDS011;53334;51.976;20.144;2022-12-18T05:42:47;13.65;;;9.55;;
36651;SDS011;53334;51.976;20.144;2022-12-18T05:45:21;14.30;;;9.63;;
36651;SDS011;53334;51.976;20.144;2022-12-18T05:47:55;12.70;;;8.80;;
36651;SDS011;53334;51.976;20.144;2022-12-18T05:50:29;13.70;;;9.25;;
36651;SDS011;53334;51.976;20.144;2022-12-18T05:53:07;14.05;;;10.48;;
36651;SDS011;53334;51.976;20.144;2022-12-18T05:55:41;11.77;;;9.18;;
36651;SDS011;53334;51.976;20.144;2022-12-18T05:58:17;14.55;;;9.02;;
36651;SDS011;53334;51.976;20.144;2022-12-18T06:00:51;16.00;;;9.77;;
36651;SDS011;53334;51.976;20.144;2022-12-18T06:03:24;14.52;;;9.43;;
36651;SDS011;53334;51.976;20.144;2022-12-18T06:06:11;13.15;;;9.13;;
36651;SDS011;53334;51.976;20.144;2022-12-18T06:08:48;14.18;;;9.75;;
36651;SDS011;53334;51.976;20.144;2022-12-18T06:11:24;12.40;;;9.45;;
36651;SDS011;53334;51.976;20.144;2022-12-18T06:13:59;13.27;;;9.13;;
36651;SDS011;53334;51.976;20.144;2022-12-18T06:16:34;15.07;;;9.18;;
36651;SDS011;53334;51.976;20.144;2022-12-18T06:19:12;10.85;;;8.35;;
36651;SDS011;53334;51.976;20.144;2022-12-18T06:21:48;14.63;;;8.90;;
36651;SDS011;53334;51.976;20.144;2022-12-18T06:24:24;15.20;;;8.95;;
36651;SDS011;53334;51.976;20.144;2022-12-18T06:26:58;11.80;;;8.98;;
36651;SDS011;53334;51.976;20.144;2022-12-18T06:29:32;11.40;;;8.77;;
36651;SDS011;53334;51.976;20.144;2022-12-18T06:32:06;10.18;;;8.20;;
36651;SDS011;53334;51.976;20.144;2022-12-18T06:34:40;12.55;;;8.73;;
36651;SDS011;53334;51.976;20.144;2022-12-18T06:37:14;12.80;;;9.63;;
36651;SDS011;53334;51.976;20.144;2022-12-18T06:39:49;13.02;;;9.23;;
36651;SDS011;53334;51.976;20.144;2022-12-18T06:42:23;16.92;;;9.30;;
36651;SDS011;53334;51.976;20.144;2022-12-18T06:44:58;13.40;;;9.57;;
36651;SDS011;53334;51.976;20.144;2022-12-18T06:47:32;17.08;;;10.15;;
36651;SDS011;53334;51.976;20.144;2022-12-18T06:50:06;15.05;;;10.82;;
36651;SDS011;53334;51.976;20.144;2022-12-18T06:52:41;13.70;;;8.70;;
36651;SDS011;53334;51.976;20.144;2022-12-18T06:55:17;13.90;;;8.93;;
36651;SDS011;53334;51.976;20.144;2022-12-18T06:57:51;15.15;;;9.48;;
36651;SDS011;53334;51.976;20.144;2022-12-18T07:00:25;18.02;;;8.63;;
36651;SDS011;53334;51.976;20.144;2022-12-18T07:02:59;19.25;;;11.63;;
36651;SDS011;53334;51.976;20.144;2022-12-18T07:05:34;17.52;;;9.60;;
36651;SDS011;53334;51.976;20.144;2022-12-18T07:08:12;16.05;;;12.18;;
36651;SDS011;53334;51.976;20.144;2022-12-18T07:13:27;23.10;;;12.75;;
36651;SDS011;53334;51.976;20.144;2022-12-18T07:16:07;14.05;;;10.88;;
36651;SDS011;53334;51.976;20.144;2022-12-18T07:18:51;22.73;;;12.25;;
36651;SDS011;53334;51.976;20.144;2022-12-18T07:21:27;19.75;;;13.85;;
36651;SDS011;53334;51.976;20.144;2022-12-18T07:24:01;18.13;;;13.02;;
36651;SDS011;53334;51.976;20.144;2022-12-18T07:26:36;20.50;;;14.27;;
36651;SDS011;53334;51.976;20.144;2022-12-18T07:29:10;17.70;;;13.65;;
36651;SDS011;53334;51.976;20.144;2022-12-18T07:31:45;17.80;;;12.88;;
36651;SDS011;53334;51.976;20.144;2022-12-18T07:34:19;18.00;;;13.38;;
36651;SDS011;53334;51.976;20.144;2022-12-18T07:36:53;18.95;;;13.60;;
36651;SDS011;53334;51.976;20.144;2022-12-18T07:42:02;18.63;;;13.48;;
36651;SDS011;53334;51.976;20.144;2022-12-18T07:44:54;15.70;;;12.25;;
36651;SDS011;53334;51.976;20.144;2022-12-18T07:47:29;17.10;;;12.73;;
36651;SDS011;53334;51.976;20.144;2022-12-18T07:50:03;18.73;;;12.65;;
36651;SDS011;53334;51.976;20.144;2022-12-18T07:52:39;20.83;;;12.98;;
36651;SDS011;53334;51.976;20.144;2022-12-18T07:55:13;20.42;;;11.68;;
36651;SDS011;53334;51.976;20.144;2022-12-18T07:57:48;15.45;;;11.25;;
36651;SDS011;53334;51.976;20.144;2022-12-18T08:00:28;22.95;;;12.65;;
36651;SDS011;53334;51.976;20.144;2022-12-18T08:03:02;16.23;;;11.55;;
36651;SDS011;53334;51.976;20.144;2022-12-18T08:05:37;19.92;;;12.48;;
36651;SDS011;53334;51.976;20.144;2022-12-18T08:08:11;15.15;;;10.20;;
36651;SDS011;53334;51.976;20.144;2022-12-18T08:10:45;15.82;;;11.63;;
36651;SDS011;53334;51.976;20.144;2022-12-18T08:13:21;17.30;;;11.30;;
36651;SDS011;53334;51.976;20.144;2022-12-18T08:15:55;15.43;;;11.05;;
36651;SDS011;53334;51.976;20.144;2022-12-18T08:18:33;22.30;;;10.95;;
36651;SDS011;53334;51.976;20.144;2022-12-18T08:21:08;20.90;;;11.73;;
36651;SDS011;53334;51.976;20.144;2022-12-18T08:23:42;17.95;;;10.55;;
36651;SDS011;53334;51.976;20.144;2022-12-18T08:26:19;15.20;;;9.93;;
36651;SDS011;53334;51.976;20.144;2022-12-18T08:28:56;18.90;;;12.05;;
36651;SDS011;53334;51.976;20.144;2022-12-18T08:31:31;15.60;;;10.90;;
36651;SDS011;53334;51.976;20.144;2022-12-18T08:34:07;18.33;;;12.55;;
36651;SDS011;53334;51.976;20.144;2022-12-18T08:36:41;16.92;;;12.07;;
36651;SDS011;53334;51.976;20.144;2022-12-18T08:39:15;15.65;;;11.98;;
36651;SDS011;53334;51.976;20.144;2022-12-18T08:41:49;18.60;;;10.82;;
36651;SDS011;53334;51.976;20.144;2022-12-18T08:44:42;20.00;;;11.60;;
36651;SDS011;53334;51.976;20.144;2022-12-18T08:47:16;22.95;;;14.45;;
36651;SDS011;53334;51.976;20.144;2022-12-18T08:49:50;18.58;;;14.02;;
36651;SDS011;53334;51.976;20.144;2022-12-18T08:52:24;19.85;;;11.27;;
36651;SDS011;53334;51.976;20.144;2022-12-18T08:54:58;20.10;;;14.32;;
36651;SDS011;53334;51.976;20.144;2022-12-18T08:57:32;22.58;;;14.13;;
36651;SDS011;53334;51.976;20.144;2022-12-18T09:00:08;24.48;;;14.70;;
36651;SDS011;53334;51.976;20.144;2022-12-18T09:02:45;22.90;;;13.52;;
36651;SDS011;53334;51.976;20.144;2022-12-18T09:05:20;33.88;;;15.32;;
36651;SDS011;53334;51.976;20.144;2022-12-18T09:07:57;26.00;;;13.88;;
36651;SDS011;53334;51.976;20.144;2022-12-18T09:10:40;27.38;;;14.48;;
36651;SDS011;53334;51.976;20.144;2022-12-18T09:13:15;22.60;;;14.00;;
36651;SDS011;53334;51.976;20.144;2022-12-18T09:15:52;21.33;;;13.25;;
36651;SDS011;53334;51.976;20.144;2022-12-18T09:18:27;23.85;;;12.50;;
36651;SDS011;53334;51.976;20.144;2022-12-18T09:21:06;24.98;;;12.07;;
36651;SDS011;53334;51.976;20.144;2022-12-18T09:23:42;29.83;;;13.40;;
36651;SDS011;53334;51.976;20.144;2022-12-18T09:26:16;20.73;;;12.32;;
36651;SDS011;53334;51.976;20.144;2022-12-18T09:28:50;19.80;;;12.73;;
36651;SDS011;53334;51.976;20.144;2022-12-18T09:31:26;18.17;;;11.27;;
36651;SDS011;53334;51.976;20.144;2022-12-18T09:34:00;23.45;;;12.15;;
36651;SDS011;53334;51.976;20.144;2022-12-18T09:36:34;24.30;;;12.75;;
36651;SDS011;53334;51.976;20.144;2022-12-18T09:39:08;20.05;;;12.57;;
36651;SDS011;53334;51.976;20.144;2022-12-18T09:41:43;28.73;;;12.30;;
36651;SDS011;53334;51.976;20.144;2022-12-18T09:44:23;22.70;;;12.05;;
36651;SDS011;53334;51.976;20.144;2022-12-18T09:47:08;22.38;;;13.18;;
36651;SDS011;53334;51.976;20.144;2022-12-18T09:49:47;26.48;;;11.82;;
36651;SDS011;53334;51.976;20.144;2022-12-18T09:52:25;21.42;;;12.32;;
36651;SDS011;53334;51.976;20.144;2022-12-18T09:55:04;21.77;;;11.93;;
36651;SDS011;53334;51.976;20.144;2022-12-18T09:57:45;29.23;;;13.13;;
36651;SDS011;53334;51.976;20.144;2022-12-18T10:00:23;25.45;;;11.68;;
36651;SDS011;53334;51.976;20.144;2022-12-18T10:03:00;21.77;;;12.77;;
36651;SDS011;53334;51.976;20.144;2022-12-18T10:05:37;24.65;;;11.80;;
36651;SDS011;53334;51.976;20.144;2022-12-18T10:08:21;18.30;;;11.15;;
36651;SDS011;53334;51.976;20.144;2022-12-18T10:11:01;16.35;;;11.93;;
36651;SDS011;53334;51.976;20.144;2022-12-18T10:13:49;18.15;;;10.73;;
36651;SDS011;53334;51.976;20.144;2022-12-18T10:16:27;25.33;;;12.85;;
36651;SDS011;53334;51.976;20.144;2022-12-18T10:19:18;19.45;;;11.43;;
36651;SDS011;53334;51.976;20.144;2022-12-18T10:22:01;16.88;;;11.43;;
36651;SDS011;53334;51.976;20.144;2022-12-18T10:24:43;33.72;;;23.02;;
36651;SDS011;53334;51.976;20.144;2022-12-18T10:27:24;60.72;;;43.15;;
36651;SDS011;53334;51.976;20.144;2022-12-18T10:30:00;54.38;;;38.53;;
36651;SDS011;53334;51.976;20.144;2022-12-18T10:32:38;49.78;;;37.17;;
36651;SDS011;53334;51.976;20.144;2022-12-18T10:35:16;48.63;;;35.80;;
36651;SDS011;53334;51.976;20.144;2022-12-18T10:37:59;47.60;;;34.78;;
36651;SDS011;53334;51.976;20.144;2022-12-18T10:40:47;39.47;;;31.60;;
36651;SDS011;53334;51.976;20.144;2022-12-18T10:43:24;40.75;;;30.20;;
36651;SDS011;53334;51.976;20.144;2022-12-18T10:46:00;42.53;;;31.95;;
36651;SDS011;53334;51.976;20.144;2022-12-18T10:48:49;38.95;;;28.40;;
36651;SDS011;53334;51.976;20.144;2022-12-18T10:51:28;47.38;;;34.63;;
36651;SDS011;53334;51.976;20.144;2022-12-18T10:54:05;40.92;;;29.13;;
36651;SDS011;53334;51.976;20.144;2022-12-18T10:56:49;41.17;;;30.10;;
36651;SDS011;53334;51.976;20.144;2022-12-18T10:59:23;39.15;;;29.58;;
36651;SDS011;53334;51.976;20.144;2022-12-18T11:01:58;44.22;;;28.77;;
36651;SDS011;53334;51.976;20.144;2022-12-18T11:04:32;38.58;;;27.73;;
36651;SDS011;53334;51.976;20.144;2022-12-18T11:07:08;48.78;;;30.40;;
36651;SDS011;53334;51.976;20.144;2022-12-18T11:09:43;43.50;;;28.05;;
36651;SDS011;53334;51.976;20.144;2022-12-18T11:12:32;38.20;;;26.83;;
36651;SDS011;53334;51.976;20.144;2022-12-18T11:15:13;43.05;;;24.98;;
36651;SDS011;53334;51.976;20.144;2022-12-18T11:17:49;55.60;;;26.92;;
36651;SDS011;53334;51.976;20.144;2022-12-18T11:20:30;38.00;;;25.00;;
36651;SDS011;53334;51.976;20.144;2022-12-18T11:23:12;42.50;;;23.93;;
36651;SDS011;53334;51.976;20.144;2022-12-18T11:25:50;46.65;;;23.65;;
36651;SDS011;53334;51.976;20.144;2022-12-18T11:28:27;35.63;;;24.35;;
36651;SDS011;53334;51.976;20.144;2022-12-18T11:31:17;40.70;;;21.75;;
36651;SDS011;53334;51.976;20.144;2022-12-18T11:33:59;36.53;;;22.63;;
36651;SDS011;53334;51.976;20.144;2022-12-18T11:36:56;41.58;;;23.60;;
36651;SDS011;53334;51.976;20.144;2022-12-18T11:39:35;42.80;;;26.05;;
36651;SDS011;53334;51.976;20.144;2022-12-18T11:42:14;769.80;;;334.27;;
36651;SDS011;53334;51.976;20.144;2022-12-18T11:44:57;460.33;;;174.25;;
36651;SDS011;53334;51.976;20.144;2022-12-18T11:47:37;468.95;;;171.20;;
36651;SDS011;53334;51.976;20.144;2022-12-18T11:50:17;458.10;;;158.90;;
36651;SDS011;53334;51.976;20.144;2022-12-18T11:52:54;445.88;;;153.80;;
36651;SDS011;53334;51.976;20.144;2022-12-18T11:55:39;322.38;;;118.95;;
36651;SDS011;53334;51.976;20.144;2022-12-18T11:58:24;321.52;;;109.45;;
36651;SDS011;53334;51.976;20.144;2022-12-18T12:01:15;295.92;;;105.72;;
36651;SDS011;53334;51.976;20.144;2022-12-18T12:04:10;244.60;;;91.18;;
36651;SDS011;53334;51.976;20.144;2022-12-18T12:06:54;189.05;;;72.80;;
36651;SDS011;53334;51.976;20.144;2022-12-18T12:09:39;185.10;;;73.53;;
36651;SDS011;53334;51.976;20.144;2022-12-18T12:12:27;179.60;;;74.65;;
36651;SDS011;53334;51.976;20.144;2022-12-18T12:15:23;173.80;;;67.68;;
36651;SDS011;53334;51.976;20.144;2022-12-18T12:18:04;148.93;;;61.63;;
36651;SDS011;53334;51.976;20.144;2022-12-18T12:20:49;123.65;;;53.80;;
36651;SDS011;53334;51.976;20.144;2022-12-18T12:23:29;130.60;;;55.42;;
36651;SDS011;53334;51.976;20.144;2022-12-18T12:26:13;128.00;;;56.95;;
36651;SDS011;53334;51.976;20.144;2022-12-18T12:29:01;120.63;;;54.58;;
36651;SDS011;53334;51.976;20.144;2022-12-18T12:31:57;128.05;;;52.67;;
36651;SDS011;53334;51.976;20.144;2022-12-18T12:34:43;115.55;;;49.75;;
36651;SDS011;53334;51.976;20.144;2022-12-18T12:37:33;110.63;;;49.22;;
36651;SDS011;53334;51.976;20.144;2022-12-18T12:40:24;118.97;;;48.38;;
36651;SDS011;53334;51.976;20.144;2022-12-18T12:43:25;97.85;;;45.60;;
36651;SDS011;53334;51.976;20.144;2022-12-18T12:46:08;101.80;;;46.40;;
36651;SDS011;53334;51.976;20.144;2022-12-18T12:48:43;100.40;;;47.63;;
36651;SDS011;53334;51.976;20.144;2022-12-18T12:51:22;98.65;;;47.05;;
36651;SDS011;53334;51.976;20.144;2022-12-18T12:53:59;98.82;;;48.90;;
36651;SDS011;53334;51.976;20.144;2022-12-18T12:56:39;80.18;;;41.08;;
36651;SDS011;53334;51.976;20.144;2022-12-18T12:59:22;84.30;;;41.88;;
36651;SDS011;53334;51.976;20.144;2022-12-18T13:02:03;78.65;;;41.25;;
36651;SDS011;53334;51.976;20.144;2022-12-18T13:04:49;79.70;;;40.97;;
36651;SDS011;53334;51.976;20.144;2022-12-18T13:07:32;76.85;;;39.75;;
36651;SDS011;53334;51.976;20.144;2022-12-18T13:10:13;70.93;;;39.78;;
36651;SDS011;53334;51.976;20.144;2022-12-18T13:12:59;81.38;;;40.55;;
36651;SDS011;53334;51.976;20.144;2022-12-18T13:15:36;72.43;;;38.80;;
36651;SDS011;53334;51.976;20.144;2022-12-18T13:18:14;69.35;;;39.20;;
36651;SDS011;53334;51.976;20.144;2022-12-18T13:21:01;76.28;;;40.35;;
36651;SDS011;53334;51.976;20.144;2022-12-18T13:23:41;68.70;;;38.22;;
36651;SDS011;53334;51.976;20.144;2022-12-18T13:29:17;59.60;;;36.30;;
36651;SDS011;53334;51.976;20.144;2022-12-18T13:32:19;56.28;;;35.63;;
36651;SDS011;53334;51.976;20.144;2022-12-18T13:38:16;57.65;;;33.55;;
36651;SDS011;53334;51.976;20.144;2022-12-18T13:40:55;57.28;;;35.38;;
36651;SDS011;53334;51.976;20.144;2022-12-18T13:43:36;59.08;;;34.88;;
36651;SDS011;53334;51.976;20.144;2022-12-18T13:46:19;63.65;;;36.65;;
36651;SDS011;53334;51.976;20.144;2022-12-18T13:48:59;45.85;;;31.60;;
36651;SDS011;53334;51.976;20.144;2022-12-18T13:51:38;46.70;;;30.33;;
36651;SDS011;53334;51.976;20.144;2022-12-18T13:54:19;47.67;;;31.33;;
36651;SDS011;53334;51.976;20.144;2022-12-18T13:56:57;47.28;;;31.55;;
36651;SDS011;53334;51.976;20.144;2022-12-18T13:59:33;49.90;;;31.92;;
36651;SDS011;53334;51.976;20.144;2022-12-18T14:02:12;54.70;;;31.38;;
36651;SDS011;53334;51.976;20.144;2022-12-18T14:04:48;44.30;;;30.85;;
36651;SDS011;53334;51.976;20.144;2022-12-18T14:07:24;48.38;;;31.73;;
36651;SDS011;53334;51.976;20.144;2022-12-18T14:10:12;50.25;;;31.67;;
36651;SDS011;53334;51.976;20.144;2022-12-18T14:13:09;48.92;;;30.55;;
36651;SDS011;53334;51.976;20.144;2022-12-18T14:15:48;50.55;;;30.55;;
36651;SDS011;53334;51.976;20.144;2022-12-18T14:18:24;48.05;;;30.77;;
36651;SDS011;53334;51.976;20.144;2022-12-18T14:21:03;40.30;;;27.90;;
36651;SDS011;53334;51.976;20.144;2022-12-18T14:23:39;44.10;;;27.55;;
36651;SDS011;53334;51.976;20.144;2022-12-18T14:26:24;48.53;;;26.98;;
36651;SDS011;53334;51.976;20.144;2022-12-18T14:29:17;38.63;;;24.75;;
36651;SDS011;53334;51.976;20.144;2022-12-18T14:32:06;43.55;;;26.45;;
36651;SDS011;53334;51.976;20.144;2022-12-18T14:34:49;40.10;;;25.73;;
36651;SDS011;53334;51.976;20.144;2022-12-18T14:37:26;36.53;;;23.35;;
36651;SDS011;53334;51.976;20.144;2022-12-18T14:40:00;34.03;;;25.38;;
36651;SDS011;53334;51.976;20.144;2022-12-18T14:42:47;37.35;;;23.85;;
36651;SDS011;53334;51.976;20.144;2022-12-18T14:48:30;41.15;;;24.00;;
36651;SDS011;53334;51.976;20.144;2022-12-18T14:51:14;33.50;;;22.05;;
36651;SDS011;53334;51.976;20.144;2022-12-18T14:53:53;51.50;;;24.13;;
36651;SDS011;53334;51.976;20.144;2022-12-18T14:56:29;38.95;;;23.63;;
36651;SDS011;53334;51.976;20.144;2022-12-18T14:59:05;42.40;;;24.15;;
36651;SDS011;53334;51.976;20.144;2022-12-18T15:01:57;38.55;;;21.58;;
36651;SDS011;53334;51.976;20.144;2022-12-18T15:04:37;35.53;;;23.58;;
36651;SDS011;53334;51.976;20.144;2022-12-18T15:07:16;35.42;;;23.35;;
36651;SDS011;53334;51.976;20.144;2022-12-18T15:10:01;34.17;;;21.63;;
36651;SDS011;53334;51.976;20.144;2022-12-18T15:12:43;41.65;;;21.60;;
36651;SDS011;53334;51.976;20.144;2022-12-18T15:18:23;38.25;;;21.45;;
36651;SDS011;53334;51.976;20.144;2022-12-18T15:21:07;38.63;;;22.40;;
36651;SDS011;53334;51.976;20.144;2022-12-18T15:23:45;40.60;;;21.65;;
36651;SDS011;53334;51.976;20.144;2022-12-18T15:26:20;37.78;;;20.63;;
36651;SDS011;53334;51.976;20.144;2022-12-18T15:28:54;37.85;;;22.35;;
36651;SDS011;53334;51.976;20.144;2022-12-18T15:31:32;36.47;;;22.27;;
36651;SDS011;53334;51.976;20.144;2022-12-18T15:34:10;60.30;;;42.60;;
36651;SDS011;53334;51.976;20.144;2022-12-18T15:36:46;92.82;;;73.63;;
36651;SDS011;53334;51.976;20.144;2022-12-18T15:39:19;89.95;;;68.80;;
36651;SDS011;53334;51.976;20.144;2022-12-18T15:41:52;87.47;;;67.35;;
36651;SDS011;53334;51.976;20.144;2022-12-18T15:44:43;96.15;;;70.97;;
36651;SDS011;53334;51.976;20.144;2022-12-18T15:47:18;82.25;;;63.30;;
36651;SDS011;53334;51.976;20.144;2022-12-18T15:49:51;86.88;;;66.57;;